sensor_id;sensor_type;location;lat;lon;timestamp;P1;durP1;ratioP1;P2;durP2;ratioP2
18649;SDS011;9454;53.516;10.478;2023-09-18T00:01:21;4.40;;;3.10;;
18649;SDS011;9454;53.516;10.478;2023-09-18T00:04:24;4.85;;;3.00;;
18649;SDS011;9454;53.516;10.478;2023-09-18T00:07:31;3.55;;;2.60;;
18649;SDS011;9454;53.516;10.478;2023-09-18T00:10:35;3.00;;;2.47;;
18649;SDS011;9454;53.516;10.478;2023-09-18T00:13:39;5.18;;;3.30;;
18649;SDS011;9454;53.516;10.478;2023-09-18T00:16:42;5.85;;;2.85;;
18649;SDS011;9454;53.516;10.478;2023-09-18T00:19:59;3.83;;;2.72;;
18649;SDS011;9454;53.516;10.478;2023-09-18T00:23:04;5.68;;;3.03;;
18649;SDS011;9454;53.516;10.478;2023-09-18T00:26:09;5.97;;;3.25;;
18649;SDS011;9454;53.516;10.478;2023-09-18T00:29:15;6.30;;;3.08;;
18649;SDS011;9454;53.516;10.478;2023-09-18T00:32:19;4.15;;;3.00;;
18649;SDS011;9454;53.516;10.478;2023-09-18T00:35:23;6.13;;;2.78;;
18649;SDS011;9454;53.516;10.478;2023-09-18T00:38:29;3.20;;;2.63;;
18649;SDS011;9454;53.516;10.478;2023-09-18T00:41:32;4.32;;;2.88;;
18649;SDS011;9454;53.516;10.478;2023-09-18T00:44:37;7.53;;;2.85;;
18649;SDS011;9454;53.516;10.478;2023-09-18T00:47:40;5.65;;;3.45;;
18649;SDS011;9454;53.516;10.478;2023-09-18T00:50:45;7.97;;;3.03;;
18649;SDS011;9454;53.516;10.478;2023-09-18T00:53:50;5.15;;;2.90;;
18649;SDS011;9454;53.516;10.478;2023-09-18T00:56:56;11.02;;;2.95;;
18649;SDS011;9454;53.516;10.478;2023-09-18T01:00:01;4.28;;;3.03;;
18649;SDS011;9454;53.516;10.478;2023-09-18T01:03:06;5.95;;;2.88;;
18649;SDS011;9454;53.516;10.478;2023-09-18T01:06:11;6.03;;;3.35;;
18649;SDS011;9454;53.516;10.478;2023-09-18T01:09:20;5.93;;;3.10;;
18649;SDS011;9454;53.516;10.478;2023-09-18T01:12:25;8.45;;;2.80;;
18649;SDS011;9454;53.516;10.478;2023-09-18T01:15:32;3.88;;;2.83;;
18649;SDS011;9454;53.516;10.478;2023-09-18T01:18:38;4.38;;;2.55;;
18649;SDS011;9454;53.516;10.478;2023-09-18T01:21:44;4.45;;;2.95;;
18649;SDS011;9454;53.516;10.478;2023-09-18T01:24:51;4.00;;;2.78;;
18649;SDS011;9454;53.516;10.478;2023-09-18T01:27:55;7.90;;;3.13;;
18649;SDS011;9454;53.516;10.478;2023-09-18T01:30:59;5.05;;;3.17;;
18649;SDS011;9454;53.516;10.478;2023-09-18T01:34:03;5.25;;;3.15;;
18649;SDS011;9454;53.516;10.478;2023-09-18T01:37:07;5.00;;;3.10;;
18649;SDS011;9454;53.516;10.478;2023-09-18T01:40:14;5.63;;;3.55;;
18649;SDS011;9454;53.516;10.478;2023-09-18T01:43:18;4.60;;;2.78;;
18649;SDS011;9454;53.516;10.478;2023-09-18T01:46:23;5.63;;;3.08;;
18649;SDS011;9454;53.516;10.478;2023-09-18T01:49:28;5.68;;;3.67;;
18649;SDS011;9454;53.516;10.478;2023-09-18T01:52:32;6.07;;;3.17;;
18649;SDS011;9454;53.516;10.478;2023-09-18T01:55:38;6.57;;;3.50;;
18649;SDS011;9454;53.516;10.478;2023-09-18T01:58:43;4.97;;;3.30;;
18649;SDS011;9454;53.516;10.478;2023-09-18T02:01:47;9.02;;;3.42;;
18649;SDS011;9454;53.516;10.478;2023-09-18T02:04:51;5.05;;;3.22;;
18649;SDS011;9454;53.516;10.478;2023-09-18T02:08:09;4.50;;;3.10;;
18649;SDS011;9454;53.516;10.478;2023-09-18T02:11:15;5.05;;;3.58;;
18649;SDS011;9454;53.516;10.478;2023-09-18T02:14:18;5.70;;;3.58;;
18649;SDS011;9454;53.516;10.478;2023-09-18T02:17:23;4.50;;;3.50;;
18649;SDS011;9454;53.516;10.478;2023-09-18T02:20:27;5.13;;;2.97;;
18649;SDS011;9454;53.516;10.478;2023-09-18T02:23:31;5.80;;;3.58;;
18649;SDS011;9454;53.516;10.478;2023-09-18T02:26:40;5.53;;;3.55;;
18649;SDS011;9454;53.516;10.478;2023-09-18T02:29:43;6.03;;;3.42;;
18649;SDS011;9454;53.516;10.478;2023-09-18T02:32:47;5.43;;;3.05;;
18649;SDS011;9454;53.516;10.478;2023-09-18T02:35:53;4.93;;;3.25;;
18649;SDS011;9454;53.516;10.478;2023-09-18T02:38:57;5.60;;;3.25;;
18649;SDS011;9454;53.516;10.478;2023-09-18T02:42:03;6.93;;;3.08;;
18649;SDS011;9454;53.516;10.478;2023-09-18T02:45:06;3.88;;;3.13;;
18649;SDS011;9454;53.516;10.478;2023-09-18T02:48:11;4.63;;;3.25;;
18649;SDS011;9454;53.516;10.478;2023-09-18T02:51:16;4.97;;;3.30;;
18649;SDS011;9454;53.516;10.478;2023-09-18T02:54:20;6.20;;;3.58;;
18649;SDS011;9454;53.516;10.478;2023-09-18T02:57:25;4.55;;;3.35;;
18649;SDS011;9454;53.516;10.478;2023-09-18T03:00:29;6.03;;;3.15;;
18649;SDS011;9454;53.516;10.478;2023-09-18T03:03:45;3.72;;;2.78;;
18649;SDS011;9454;53.516;10.478;2023-09-18T03:06:49;5.57;;;3.33;;
18649;SDS011;9454;53.516;10.478;2023-09-18T03:09:53;5.97;;;3.60;;
18649;SDS011;9454;53.516;10.478;2023-09-18T03:13:00;6.72;;;3.40;;
18649;SDS011;9454;53.516;10.478;2023-09-18T03:16:05;4.55;;;3.03;;
18649;SDS011;9454;53.516;10.478;2023-09-18T03:19:10;4.50;;;3.28;;
18649;SDS011;9454;53.516;10.478;2023-09-18T03:22:14;4.25;;;3.45;;
18649;SDS011;9454;53.516;10.478;2023-09-18T03:25:18;5.18;;;3.45;;
18649;SDS011;9454;53.516;10.478;2023-09-18T03:28:25;4.60;;;3.03;;
18649;SDS011;9454;53.516;10.478;2023-09-18T03:31:28;5.68;;;3.60;;
18649;SDS011;9454;53.516;10.478;2023-09-18T03:34:32;5.70;;;3.70;;
18649;SDS011;9454;53.516;10.478;2023-09-18T03:37:36;5.65;;;3.35;;
18649;SDS011;9454;53.516;10.478;2023-09-18T03:40:41;4.82;;;3.58;;
18649;SDS011;9454;53.516;10.478;2023-09-18T03:43:47;6.28;;;3.83;;
18649;SDS011;9454;53.516;10.478;2023-09-18T03:46:51;6.00;;;3.75;;
18649;SDS011;9454;53.516;10.478;2023-09-18T03:49:55;6.18;;;4.00;;
18649;SDS011;9454;53.516;10.478;2023-09-18T03:52:59;5.75;;;3.58;;
18649;SDS011;9454;53.516;10.478;2023-09-18T03:56:03;5.45;;;3.35;;
18649;SDS011;9454;53.516;10.478;2023-09-18T03:59:08;6.68;;;3.78;;
18649;SDS011;9454;53.516;10.478;2023-09-18T04:02:13;6.18;;;3.80;;
18649;SDS011;9454;53.516;10.478;2023-09-18T04:05:17;5.05;;;3.42;;
18649;SDS011;9454;53.516;10.478;2023-09-18T04:08:21;5.90;;;3.72;;
18649;SDS011;9454;53.516;10.478;2023-09-18T04:11:27;4.45;;;3.35;;
18649;SDS011;9454;53.516;10.478;2023-09-18T04:14:36;7.88;;;3.88;;
18649;SDS011;9454;53.516;10.478;2023-09-18T04:17:40;7.55;;;3.55;;
18649;SDS011;9454;53.516;10.478;2023-09-18T04:20:46;5.43;;;3.53;;
18649;SDS011;9454;53.516;10.478;2023-09-18T04:23:54;4.55;;;3.45;;
18649;SDS011;9454;53.516;10.478;2023-09-18T04:27:00;8.30;;;3.72;;
18649;SDS011;9454;53.516;10.478;2023-09-18T04:30:06;5.20;;;3.50;;
18649;SDS011;9454;53.516;10.478;2023-09-18T04:33:12;5.18;;;3.55;;
18649;SDS011;9454;53.516;10.478;2023-09-18T04:36:18;4.57;;;4.03;;
18649;SDS011;9454;53.516;10.478;2023-09-18T04:39:24;6.22;;;4.18;;
18649;SDS011;9454;53.516;10.478;2023-09-18T04:42:31;6.07;;;3.70;;
18649;SDS011;9454;53.516;10.478;2023-09-18T04:45:36;8.85;;;3.97;;
18649;SDS011;9454;53.516;10.478;2023-09-18T04:48:46;6.50;;;4.47;;
18649;SDS011;9454;53.516;10.478;2023-09-18T04:51:49;5.53;;;3.58;;
18649;SDS011;9454;53.516;10.478;2023-09-18T04:54:54;5.78;;;3.88;;
18649;SDS011;9454;53.516;10.478;2023-09-18T04:57:59;5.22;;;3.67;;
18649;SDS011;9454;53.516;10.478;2023-09-18T05:01:04;6.15;;;4.18;;
18649;SDS011;9454;53.516;10.478;2023-09-18T05:04:11;7.15;;;4.15;;
18649;SDS011;9454;53.516;10.478;2023-09-18T05:07:16;5.15;;;3.92;;
18649;SDS011;9454;53.516;10.478;2023-09-18T05:10:19;7.07;;;4.38;;
18649;SDS011;9454;53.516;10.478;2023-09-18T05:13:23;7.97;;;3.95;;
18649;SDS011;9454;53.516;10.478;2023-09-18T05:16:28;4.85;;;3.35;;
18649;SDS011;9454;53.516;10.478;2023-09-18T05:19:36;7.68;;;3.53;;
18649;SDS011;9454;53.516;10.478;2023-09-18T05:22:45;4.35;;;3.30;;
18649;SDS011;9454;53.516;10.478;2023-09-18T05:25:49;7.10;;;4.22;;
18649;SDS011;9454;53.516;10.478;2023-09-18T05:28:54;7.32;;;4.07;;
18649;SDS011;9454;53.516;10.478;2023-09-18T05:32:03;5.57;;;3.95;;
18649;SDS011;9454;53.516;10.478;2023-09-18T05:35:07;5.72;;;3.72;;
18649;SDS011;9454;53.516;10.478;2023-09-18T05:38:15;10.80;;;3.63;;
18649;SDS011;9454;53.516;10.478;2023-09-18T05:41:20;4.53;;;3.80;;
18649;SDS011;9454;53.516;10.478;2023-09-18T05:44:28;4.93;;;3.80;;
18649;SDS011;9454;53.516;10.478;2023-09-18T05:47:33;7.05;;;3.40;;
18649;SDS011;9454;53.516;10.478;2023-09-18T05:50:38;6.03;;;4.00;;
18649;SDS011;9454;53.516;10.478;2023-09-18T05:53:43;6.88;;;3.67;;
18649;SDS011;9454;53.516;10.478;2023-09-18T05:56:47;6.65;;;4.10;;
18649;SDS011;9454;53.516;10.478;2023-09-18T05:59:50;10.18;;;3.90;;
18649;SDS011;9454;53.516;10.478;2023-09-18T06:02:56;8.25;;;3.92;;
18649;SDS011;9454;53.516;10.478;2023-09-18T06:06:01;7.10;;;4.00;;
18649;SDS011;9454;53.516;10.478;2023-09-18T06:09:04;6.78;;;4.35;;
18649;SDS011;9454;53.516;10.478;2023-09-18T06:12:08;7.70;;;4.03;;
18649;SDS011;9454;53.516;10.478;2023-09-18T06:15:12;6.43;;;3.75;;
18649;SDS011;9454;53.516;10.478;2023-09-18T06:18:17;5.90;;;4.07;;
18649;SDS011;9454;53.516;10.478;2023-09-18T06:21:22;10.68;;;4.55;;
18649;SDS011;9454;53.516;10.478;2023-09-18T06:24:26;7.93;;;3.55;;
18649;SDS011;9454;53.516;10.478;2023-09-18T06:27:34;6.88;;;4.10;;
18649;SDS011;9454;53.516;10.478;2023-09-18T06:30:39;7.15;;;4.05;;
18649;SDS011;9454;53.516;10.478;2023-09-18T06:33:44;6.38;;;4.18;;
18649;SDS011;9454;53.516;10.478;2023-09-18T06:36:49;11.20;;;3.72;;
18649;SDS011;9454;53.516;10.478;2023-09-18T06:39:52;8.80;;;3.63;;
18649;SDS011;9454;53.516;10.478;2023-09-18T06:43:00;7.32;;;4.00;;
18649;SDS011;9454;53.516;10.478;2023-09-18T06:46:04;4.88;;;3.45;;
18649;SDS011;9454;53.516;10.478;2023-09-18T06:49:25;5.43;;;3.63;;
18649;SDS011;9454;53.516;10.478;2023-09-18T06:52:29;5.75;;;3.90;;
18649;SDS011;9454;53.516;10.478;2023-09-18T06:55:32;5.95;;;3.85;;
18649;SDS011;9454;53.516;10.478;2023-09-18T06:58:36;8.38;;;3.63;;
18649;SDS011;9454;53.516;10.478;2023-09-18T07:01:40;6.60;;;3.22;;
18649;SDS011;9454;53.516;10.478;2023-09-18T07:04:47;5.30;;;3.58;;
18649;SDS011;9454;53.516;10.478;2023-09-18T07:07:51;5.95;;;3.75;;
18649;SDS011;9454;53.516;10.478;2023-09-18T07:10:54;9.48;;;3.58;;
18649;SDS011;9454;53.516;10.478;2023-09-18T07:13:58;4.72;;;3.47;;
18649;SDS011;9454;53.516;10.478;2023-09-18T07:17:07;4.05;;;3.30;;
18649;SDS011;9454;53.516;10.478;2023-09-18T07:20:13;4.75;;;3.03;;
18649;SDS011;9454;53.516;10.478;2023-09-18T07:23:20;5.60;;;3.80;;
18649;SDS011;9454;53.516;10.478;2023-09-18T07:26:26;4.63;;;3.45;;
18649;SDS011;9454;53.516;10.478;2023-09-18T07:29:33;5.78;;;3.35;;
18649;SDS011;9454;53.516;10.478;2023-09-18T07:32:39;5.90;;;3.58;;
18649;SDS011;9454;53.516;10.478;2023-09-18T07:35:46;4.55;;;3.20;;
18649;SDS011;9454;53.516;10.478;2023-09-18T07:38:50;4.78;;;3.38;;
18649;SDS011;9454;53.516;10.478;2023-09-18T07:41:56;4.88;;;3.03;;
18649;SDS011;9454;53.516;10.478;2023-09-18T07:45:00;4.65;;;3.42;;
18649;SDS011;9454;53.516;10.478;2023-09-18T07:48:04;5.22;;;3.53;;
18649;SDS011;9454;53.516;10.478;2023-09-18T07:51:11;6.65;;;3.28;;
18649;SDS011;9454;53.516;10.478;2023-09-18T07:54:15;5.88;;;3.45;;
18649;SDS011;9454;53.516;10.478;2023-09-18T07:57:20;7.25;;;3.45;;
18649;SDS011;9454;53.516;10.478;2023-09-18T08:00:24;8.85;;;3.35;;
18649;SDS011;9454;53.516;10.478;2023-09-18T08:03:28;5.57;;;2.92;;
18649;SDS011;9454;53.516;10.478;2023-09-18T08:06:33;4.82;;;2.88;;
18649;SDS011;9454;53.516;10.478;2023-09-18T08:09:37;5.28;;;3.28;;
18649;SDS011;9454;53.516;10.478;2023-09-18T08:12:40;4.25;;;3.35;;
18649;SDS011;9454;53.516;10.478;2023-09-18T08:15:44;5.18;;;3.35;;
18649;SDS011;9454;53.516;10.478;2023-09-18T08:18:48;4.65;;;3.20;;
18649;SDS011;9454;53.516;10.478;2023-09-18T08:21:57;5.65;;;3.13;;
18649;SDS011;9454;53.516;10.478;2023-09-18T08:25:06;5.60;;;3.53;;
18649;SDS011;9454;53.516;10.478;2023-09-18T08:28:14;5.30;;;3.10;;
18649;SDS011;9454;53.516;10.478;2023-09-18T08:31:17;5.28;;;3.20;;
18649;SDS011;9454;53.516;10.478;2023-09-18T08:34:21;4.88;;;3.00;;
18649;SDS011;9454;53.516;10.478;2023-09-18T08:37:29;5.10;;;3.50;;
18649;SDS011;9454;53.516;10.478;2023-09-18T08:40:33;6.53;;;3.15;;
18649;SDS011;9454;53.516;10.478;2023-09-18T08:43:37;5.80;;;3.33;;
18649;SDS011;9454;53.516;10.478;2023-09-18T08:46:42;4.88;;;3.38;;
18649;SDS011;9454;53.516;10.478;2023-09-18T08:49:46;6.63;;;2.97;;
18649;SDS011;9454;53.516;10.478;2023-09-18T08:52:53;4.68;;;3.17;;
18649;SDS011;9454;53.516;10.478;2023-09-18T08:55:57;4.53;;;3.28;;
18649;SDS011;9454;53.516;10.478;2023-09-18T08:59:03;3.90;;;3.13;;
18649;SDS011;9454;53.516;10.478;2023-09-18T09:02:07;11.20;;;3.22;;
18649;SDS011;9454;53.516;10.478;2023-09-18T09:05:13;3.42;;;2.95;;
18649;SDS011;9454;53.516;10.478;2023-09-18T09:08:18;5.38;;;3.45;;
18649;SDS011;9454;53.516;10.478;2023-09-18T09:11:24;4.43;;;3.08;;
18649;SDS011;9454;53.516;10.478;2023-09-18T09:14:28;3.75;;;2.70;;
18649;SDS011;9454;53.516;10.478;2023-09-18T09:17:35;5.05;;;3.22;;
18649;SDS011;9454;53.516;10.478;2023-09-18T09:20:41;4.10;;;3.35;;
18649;SDS011;9454;53.516;10.478;2023-09-18T09:23:57;4.53;;;3.28;;
18649;SDS011;9454;53.516;10.478;2023-09-18T09:27:05;3.88;;;2.88;;
18649;SDS011;9454;53.516;10.478;2023-09-18T09:30:11;4.97;;;3.45;;
18649;SDS011;9454;53.516;10.478;2023-09-18T09:33:16;6.93;;;3.30;;
18649;SDS011;9454;53.516;10.478;2023-09-18T09:36:21;5.53;;;3.10;;
18649;SDS011;9454;53.516;10.478;2023-09-18T09:39:26;4.32;;;3.08;;
18649;SDS011;9454;53.516;10.478;2023-09-18T09:42:37;5.65;;;2.88;;
18649;SDS011;9454;53.516;10.478;2023-09-18T09:45:41;3.47;;;2.80;;
18649;SDS011;9454;53.516;10.478;2023-09-18T09:48:58;4.85;;;3.13;;
18649;SDS011;9454;53.516;10.478;2023-09-18T09:52:03;3.60;;;2.63;;
18649;SDS011;9454;53.516;10.478;2023-09-18T09:55:18;6.15;;;3.10;;
18649;SDS011;9454;53.516;10.478;2023-09-18T09:58:26;2.85;;;2.45;;
18649;SDS011;9454;53.516;10.478;2023-09-18T10:01:32;2.97;;;2.58;;
18649;SDS011;9454;53.516;10.478;2023-09-18T10:04:38;3.95;;;3.05;;
18649;SDS011;9454;53.516;10.478;2023-09-18T10:07:45;4.07;;;2.60;;
18649;SDS011;9454;53.516;10.478;2023-09-18T10:10:51;4.43;;;2.83;;
18649;SDS011;9454;53.516;10.478;2023-09-18T10:13:58;10.23;;;2.80;;
18649;SDS011;9454;53.516;10.478;2023-09-18T10:17:04;5.22;;;2.55;;
18649;SDS011;9454;53.516;10.478;2023-09-18T10:20:12;3.63;;;2.42;;
18649;SDS011;9454;53.516;10.478;2023-09-18T10:23:24;5.60;;;2.83;;
18649;SDS011;9454;53.516;10.478;2023-09-18T10:26:35;4.22;;;2.67;;
18649;SDS011;9454;53.516;10.478;2023-09-18T10:29:45;5.72;;;3.00;;
18649;SDS011;9454;53.516;10.478;2023-09-18T10:32:53;3.75;;;2.40;;
18649;SDS011;9454;53.516;10.478;2023-09-18T10:35:58;6.72;;;2.58;;
18649;SDS011;9454;53.516;10.478;2023-09-18T10:39:07;5.50;;;2.20;;
18649;SDS011;9454;53.516;10.478;2023-09-18T10:42:16;7.50;;;2.47;;
18649;SDS011;9454;53.516;10.478;2023-09-18T10:45:20;5.97;;;2.47;;
18649;SDS011;9454;53.516;10.478;2023-09-18T10:48:25;6.80;;;3.05;;
18649;SDS011;9454;53.516;10.478;2023-09-18T10:51:33;4.53;;;2.17;;
18649;SDS011;9454;53.516;10.478;2023-09-18T10:54:39;8.73;;;2.58;;
18649;SDS011;9454;53.516;10.478;2023-09-18T10:57:51;4.45;;;2.65;;
18649;SDS011;9454;53.516;10.478;2023-09-18T11:00:55;3.90;;;2.20;;
18649;SDS011;9454;53.516;10.478;2023-09-18T11:04:04;3.83;;;2.40;;
18649;SDS011;9454;53.516;10.478;2023-09-18T11:07:13;3.38;;;2.42;;
18649;SDS011;9454;53.516;10.478;2023-09-18T11:10:25;6.60;;;3.28;;
18649;SDS011;9454;53.516;10.478;2023-09-18T11:13:30;5.70;;;2.38;;
18649;SDS011;9454;53.516;10.478;2023-09-18T11:16:35;9.27;;;2.85;;
18649;SDS011;9454;53.516;10.478;2023-09-18T11:19:40;6.20;;;2.60;;
18649;SDS011;9454;53.516;10.478;2023-09-18T11:22:46;4.00;;;2.38;;
18649;SDS011;9454;53.516;10.478;2023-09-18T11:25:50;6.38;;;2.30;;
18649;SDS011;9454;53.516;10.478;2023-09-18T11:29:03;4.78;;;2.55;;
18649;SDS011;9454;53.516;10.478;2023-09-18T11:32:07;4.13;;;2.42;;
18649;SDS011;9454;53.516;10.478;2023-09-18T11:35:17;3.60;;;2.33;;
18649;SDS011;9454;53.516;10.478;2023-09-18T11:38:22;10.32;;;2.53;;
18649;SDS011;9454;53.516;10.478;2023-09-18T11:41:30;4.10;;;2.45;;
18649;SDS011;9454;53.516;10.478;2023-09-18T11:44:35;6.05;;;2.47;;
18649;SDS011;9454;53.516;10.478;2023-09-18T11:47:43;6.13;;;2.60;;
18649;SDS011;9454;53.516;10.478;2023-09-18T11:50:48;3.38;;;2.55;;
18649;SDS011;9454;53.516;10.478;2023-09-18T11:53:53;4.38;;;2.45;;
18649;SDS011;9454;53.516;10.478;2023-09-18T11:57:02;3.50;;;2.40;;
18649;SDS011;9454;53.516;10.478;2023-09-18T12:00:20;8.15;;;2.30;;
18649;SDS011;9454;53.516;10.478;2023-09-18T12:03:26;4.15;;;2.33;;
18649;SDS011;9454;53.516;10.478;2023-09-18T12:06:33;6.35;;;2.28;;
18649;SDS011;9454;53.516;10.478;2023-09-18T12:09:37;6.55;;;2.58;;
18649;SDS011;9454;53.516;10.478;2023-09-18T12:12:43;7.60;;;2.38;;
18649;SDS011;9454;53.516;10.478;2023-09-18T12:15:48;7.32;;;2.80;;
18649;SDS011;9454;53.516;10.478;2023-09-18T12:18:53;3.80;;;2.42;;
18649;SDS011;9454;53.516;10.478;2023-09-18T12:21:58;5.05;;;1.98;;
18649;SDS011;9454;53.516;10.478;2023-09-18T12:25:09;4.18;;;2.30;;
18649;SDS011;9454;53.516;10.478;2023-09-18T12:28:17;3.50;;;1.92;;
18649;SDS011;9454;53.516;10.478;2023-09-18T12:31:22;6.72;;;2.25;;
18649;SDS011;9454;53.516;10.478;2023-09-18T12:34:28;6.30;;;2.38;;
18649;SDS011;9454;53.516;10.478;2023-09-18T12:37:32;7.15;;;2.10;;
18649;SDS011;9454;53.516;10.478;2023-09-18T12:40:36;3.95;;;2.10;;
18649;SDS011;9454;53.516;10.478;2023-09-18T12:43:41;6.93;;;2.20;;
18649;SDS011;9454;53.516;10.478;2023-09-18T12:46:50;4.53;;;2.00;;
18649;SDS011;9454;53.516;10.478;2023-09-18T12:49:53;6.28;;;2.67;;
18649;SDS011;9454;53.516;10.478;2023-09-18T12:53:06;2.90;;;1.60;;
18649;SDS011;9454;53.516;10.478;2023-09-18T12:56:10;3.40;;;2.08;;
18649;SDS011;9454;53.516;10.478;2023-09-18T12:59:18;5.60;;;1.67;;
18649;SDS011;9454;53.516;10.478;2023-09-18T13:02:24;12.00;;;1.88;;
18649;SDS011;9454;53.516;10.478;2023-09-18T13:05:31;3.47;;;1.58;;
18649;SDS011;9454;53.516;10.478;2023-09-18T13:08:37;3.72;;;1.75;;
18649;SDS011;9454;53.516;10.478;2023-09-18T13:11:51;4.00;;;1.70;;
18649;SDS011;9454;53.516;10.478;2023-09-18T13:14:59;5.35;;;1.90;;
18649;SDS011;9454;53.516;10.478;2023-09-18T13:18:10;6.20;;;1.73;;
18649;SDS011;9454;53.516;10.478;2023-09-18T13:21:13;10.07;;;1.33;;
18649;SDS011;9454;53.516;10.478;2023-09-18T13:24:24;2.00;;;1.40;;
18649;SDS011;9454;53.516;10.478;2023-09-18T13:27:29;3.72;;;1.45;;
18649;SDS011;9454;53.516;10.478;2023-09-18T13:30:35;8.68;;;1.65;;
18649;SDS011;9454;53.516;10.478;2023-09-18T13:33:41;4.13;;;1.40;;
18649;SDS011;9454;53.516;10.478;2023-09-18T13:36:46;3.90;;;1.38;;
18649;SDS011;9454;53.516;10.478;2023-09-18T13:39:50;2.00;;;1.42;;
18649;SDS011;9454;53.516;10.478;2023-09-18T13:42:56;6.50;;;1.90;;
18649;SDS011;9454;53.516;10.478;2023-09-18T13:45:59;6.30;;;1.67;;
18649;SDS011;9454;53.516;10.478;2023-09-18T13:49:10;3.10;;;1.30;;
18649;SDS011;9454;53.516;10.478;2023-09-18T13:52:14;6.57;;;1.60;;
18649;SDS011;9454;53.516;10.478;2023-09-18T13:55:21;5.30;;;1.20;;
18649;SDS011;9454;53.516;10.478;2023-09-18T13:58:24;4.30;;;1.10;;
18649;SDS011;9454;53.516;10.478;2023-09-18T14:01:33;10.43;;;1.23;;
18649;SDS011;9454;53.516;10.478;2023-09-18T14:04:38;2.45;;;1.13;;
18649;SDS011;9454;53.516;10.478;2023-09-18T14:07:45;4.00;;;1.00;;
18649;SDS011;9454;53.516;10.478;2023-09-18T14:10:49;1.00;;;0.90;;
18649;SDS011;9454;53.516;10.478;2023-09-18T14:13:53;4.65;;;1.25;;
18649;SDS011;9454;53.516;10.478;2023-09-18T14:16:58;9.00;;;1.38;;
18649;SDS011;9454;53.516;10.478;2023-09-18T14:20:06;7.38;;;1.38;;
18649;SDS011;9454;53.516;10.478;2023-09-18T14:23:16;7.85;;;1.50;;
18649;SDS011;9454;53.516;10.478;2023-09-18T14:26:22;3.20;;;1.30;;
18649;SDS011;9454;53.516;10.478;2023-09-18T14:29:27;7.50;;;1.35;;
18649;SDS011;9454;53.516;10.478;2023-09-18T14:32:31;4.53;;;1.38;;
18649;SDS011;9454;53.516;10.478;2023-09-18T14:35:39;2.80;;;1.13;;
18649;SDS011;9454;53.516;10.478;2023-09-18T14:38:43;2.58;;;1.08;;
18649;SDS011;9454;53.516;10.478;2023-09-18T14:41:48;6.82;;;1.23;;
18649;SDS011;9454;53.516;10.478;2023-09-18T14:44:52;4.85;;;1.30;;
18649;SDS011;9454;53.516;10.478;2023-09-18T14:47:57;5.25;;;1.50;;
18649;SDS011;9454;53.516;10.478;2023-09-18T14:51:02;4.15;;;1.08;;
18649;SDS011;9454;53.516;10.478;2023-09-18T14:54:08;1.73;;;0.90;;
18649;SDS011;9454;53.516;10.478;2023-09-18T14:57:12;6.35;;;1.45;;
18649;SDS011;9454;53.516;10.478;2023-09-18T15:00:21;3.47;;;1.13;;
18649;SDS011;9454;53.516;10.478;2023-09-18T15:03:25;6.13;;;1.10;;
18649;SDS011;9454;53.516;10.478;2023-09-18T15:06:31;2.17;;;0.90;;
18649;SDS011;9454;53.516;10.478;2023-09-18T15:09:35;1.80;;;1.15;;
18649;SDS011;9454;53.516;10.478;2023-09-18T15:12:40;1.90;;;1.05;;
18649;SDS011;9454;53.516;10.478;2023-09-18T15:15:44;3.22;;;1.08;;
18649;SDS011;9454;53.516;10.478;2023-09-18T15:18:47;3.80;;;0.98;;
18649;SDS011;9454;53.516;10.478;2023-09-18T15:22:02;1.65;;;0.90;;
18649;SDS011;9454;53.516;10.478;2023-09-18T15:25:07;3.95;;;1.27;;
18649;SDS011;9454;53.516;10.478;2023-09-18T15:28:11;2.97;;;1.30;;
18649;SDS011;9454;53.516;10.478;2023-09-18T15:31:15;4.30;;;1.80;;
18649;SDS011;9454;53.516;10.478;2023-09-18T15:34:21;3.97;;;1.10;;
18649;SDS011;9454;53.516;10.478;2023-09-18T15:37:27;5.97;;;1.20;;
18649;SDS011;9454;53.516;10.478;2023-09-18T15:40:31;5.75;;;1.13;;
18649;SDS011;9454;53.516;10.478;2023-09-18T15:43:35;2.92;;;0.90;;
18649;SDS011;9454;53.516;10.478;2023-09-18T15:46:40;3.65;;;0.98;;
18649;SDS011;9454;53.516;10.478;2023-09-18T15:49:43;2.58;;;0.82;;
18649;SDS011;9454;53.516;10.478;2023-09-18T15:52:48;2.80;;;1.02;;
18649;SDS011;9454;53.516;10.478;2023-09-18T15:55:52;4.20;;;1.50;;
18649;SDS011;9454;53.516;10.478;2023-09-18T15:58:56;2.17;;;1.00;;
18649;SDS011;9454;53.516;10.478;2023-09-18T16:02:01;3.28;;;0.90;;
18649;SDS011;9454;53.516;10.478;2023-09-18T16:05:09;5.50;;;1.52;;
18649;SDS011;9454;53.516;10.478;2023-09-18T16:08:15;2.97;;;0.98;;
18649;SDS011;9454;53.516;10.478;2023-09-18T16:11:19;1.73;;;0.75;;
18649;SDS011;9454;53.516;10.478;2023-09-18T16:14:23;3.40;;;0.90;;
18649;SDS011;9454;53.516;10.478;2023-09-18T16:17:32;5.68;;;1.10;;
18649;SDS011;9454;53.516;10.478;2023-09-18T16:20:35;5.32;;;1.48;;
18649;SDS011;9454;53.516;10.478;2023-09-18T16:23:43;4.30;;;1.00;;
18649;SDS011;9454;53.516;10.478;2023-09-18T16:26:50;2.00;;;0.70;;
18649;SDS011;9454;53.516;10.478;2023-09-18T16:29:56;1.85;;;1.05;;
18649;SDS011;9454;53.516;10.478;2023-09-18T16:33:00;3.83;;;0.90;;
18649;SDS011;9454;53.516;10.478;2023-09-18T16:36:04;2.45;;;0.80;;
18649;SDS011;9454;53.516;10.478;2023-09-18T16:39:10;5.97;;;1.35;;
18649;SDS011;9454;53.516;10.478;2023-09-18T16:42:18;4.35;;;1.30;;
18649;SDS011;9454;53.516;10.478;2023-09-18T16:45:21;2.47;;;1.10;;
18649;SDS011;9454;53.516;10.478;2023-09-18T16:48:25;2.25;;;1.00;;
18649;SDS011;9454;53.516;10.478;2023-09-18T16:51:32;1.90;;;0.93;;
18649;SDS011;9454;53.516;10.478;2023-09-18T16:54:37;1.65;;;1.00;;
18649;SDS011;9454;53.516;10.478;2023-09-18T16:57:40;3.05;;;0.95;;
18649;SDS011;9454;53.516;10.478;2023-09-18T17:00:44;1.70;;;1.00;;
18649;SDS011;9454;53.516;10.478;2023-09-18T17:03:48;3.45;;;1.10;;
18649;SDS011;9454;53.516;10.478;2023-09-18T17:06:53;9.13;;;1.35;;
18649;SDS011;9454;53.516;10.478;2023-09-18T17:09:58;3.72;;;1.15;;
18649;SDS011;9454;53.516;10.478;2023-09-18T17:13:02;5.15;;;1.10;;
18649;SDS011;9454;53.516;10.478;2023-09-18T17:16:06;4.70;;;1.10;;
18649;SDS011;9454;53.516;10.478;2023-09-18T17:19:10;4.40;;;1.15;;
18649;SDS011;9454;53.516;10.478;2023-09-18T17:22:14;4.38;;;1.05;;
18649;SDS011;9454;53.516;10.478;2023-09-18T17:25:19;4.72;;;1.13;;
18649;SDS011;9454;53.516;10.478;2023-09-18T17:28:23;4.75;;;1.20;;
18649;SDS011;9454;53.516;10.478;2023-09-18T17:31:27;6.50;;;1.30;;
18649;SDS011;9454;53.516;10.478;2023-09-18T17:34:30;4.25;;;1.25;;
18649;SDS011;9454;53.516;10.478;2023-09-18T17:37:34;6.22;;;1.35;;
18649;SDS011;9454;53.516;10.478;2023-09-18T17:40:39;5.63;;;1.65;;
18649;SDS011;9454;53.516;10.478;2023-09-18T17:43:43;1.88;;;1.00;;
18649;SDS011;9454;53.516;10.478;2023-09-18T17:46:47;4.28;;;1.20;;
18649;SDS011;9454;53.516;10.478;2023-09-18T17:49:50;2.97;;;1.00;;
18649;SDS011;9454;53.516;10.478;2023-09-18T17:52:54;3.42;;;1.00;;
18649;SDS011;9454;53.516;10.478;2023-09-18T17:56:00;2.28;;;0.93;;
18649;SDS011;9454;53.516;10.478;2023-09-18T17:59:04;4.85;;;1.02;;
18649;SDS011;9454;53.516;10.478;2023-09-18T18:02:09;4.63;;;1.23;;
18649;SDS011;9454;53.516;10.478;2023-09-18T18:05:13;3.83;;;1.40;;
18649;SDS011;9454;53.516;10.478;2023-09-18T18:08:18;4.13;;;1.13;;
18649;SDS011;9454;53.516;10.478;2023-09-18T18:11:23;6.53;;;1.35;;
18649;SDS011;9454;53.516;10.478;2023-09-18T18:14:26;3.22;;;1.50;;
18649;SDS011;9454;53.516;10.478;2023-09-18T18:17:31;4.05;;;1.15;;
18649;SDS011;9454;53.516;10.478;2023-09-18T18:20:35;2.35;;;1.10;;
18649;SDS011;9454;53.516;10.478;2023-09-18T18:23:40;4.95;;;0.90;;
18649;SDS011;9454;53.516;10.478;2023-09-18T18:26:45;3.03;;;1.10;;
18649;SDS011;9454;53.516;10.478;2023-09-18T18:29:50;2.67;;;1.13;;
18649;SDS011;9454;53.516;10.478;2023-09-18T18:32:56;6.75;;;1.10;;
18649;SDS011;9454;53.516;10.478;2023-09-18T18:36:00;7.63;;;1.13;;
18649;SDS011;9454;53.516;10.478;2023-09-18T18:39:04;2.97;;;1.10;;